Time;durP1;ratioP1;P1;durP2;ratioP2;P2;SDS_P1;SDS_P2;PMS_P1;PMS_P2;Temp;Humidity;BMP_temperature;BMP_pressure;BME280_temperature;BME280_humidity;BME280_pressure;Samples;Min_cycle;Max_cycle;Signal;HPM_P1;HPM_P2
2022/03/10 00:00:12;;;;;;;21.23;11.37;;;2.10;99.90;;;;;;4961420;28;20218;-94
2022/03/10 00:02:45;;;;;;;15.80;11.10;;;2.00;99.90;;;;;;4961494;28;20177;-93
2022/03/10 00:05:15;;;;;;;17.40;11.17;;;2.00;99.90;;;;;;4978654;28;20247;-94
2022/03/10 00:07:41;;;;;;;17.03;11.73;;;2.00;99.90;;;;;;4978658;28;20328;-94
2022/03/10 00:10:08;;;;;;;17.13;11.03;;;1.90;99.90;;;;;;4961605;28;20269;-92
2022/03/10 00:12:34;;;;;;;21.80;12.10;;;1.80;99.90;;;;;;4979081;28;20180;-94
2022/03/10 00:15:06;;;;;;;17.70;11.63;;;1.70;99.90;;;;;;4961475;28;20203;-94
2022/03/10 00:17:32;;;;;;;16.20;10.77;;;1.60;99.90;;;;;;4978459;28;20165;-94
2022/03/10 00:19:58;;;;;;;17.83;11.30;;;1.60;99.90;;;;;;4978573;28;20183;-94
2022/03/10 00:22:23;;;;;;;15.80;10.43;;;1.60;99.90;;;;;;4978240;28;20206;-93
2022/03/10 00:24:49;;;;;;;18.60;11.10;;;1.60;99.90;;;;;;4978655;28;20481;-95
2022/03/10 00:27:15;;;;;;;20.37;11.23;;;1.50;99.90;;;;;;4978365;28;20180;-94
2022/03/10 00:29:40;;;;;;;20.77;11.13;;;1.50;99.90;;;;;;4961106;28;20691;-93
2022/03/10 00:32:06;;;;;;;17.70;11.43;;;1.60;99.90;;;;;;4978203;28;20171;-92
2022/03/10 00:34:32;;;;;;;19.17;12.37;;;1.60;99.90;;;;;;4961119;28;20563;-93
2022/03/10 00:36:59;;;;;;;20.07;11.67;;;1.60;99.90;;;;;;4977931;28;20212;-95
2022/03/10 00:39:24;;;;;;;20.20;11.70;;;1.60;99.90;;;;;;5417770;23;20234;-95
2022/03/10 00:41:50;;;;;;;19.70;13.10;;;1.70;99.90;;;;;;4905698;29;20186;-96
2022/03/10 00:44:17;;;;;;;17.00;11.20;;;1.70;99.90;;;;;;4920816;29;20189;-95
2022/03/10 00:46:42;;;;;;;14.70;10.73;;;1.70;99.90;;;;;;4904004;29;20183;-96
2022/03/10 00:49:08;;;;;;;15.37;10.13;;;1.70;99.90;;;;;;4920561;29;20203;-95
2022/03/10 00:51:33;;;;;;;15.13;10.23;;;1.70;99.90;;;;;;4920391;29;20235;-95
2022/03/10 00:53:59;;;;;;;18.23;10.27;;;1.80;99.90;;;;;;4903749;29;20189;-92
2022/03/10 00:56:25;;;;;;;15.17;10.67;;;1.80;99.90;;;;;;4920255;29;20218;-95
2022/03/10 00:58:51;;;;;;;15.80;10.67;;;1.90;99.90;;;;;;4920459;29;20180;-94
2022/03/10 01:01:16;;;;;;;14.37;10.43;;;1.90;99.90;;;;;;4920323;29;20551;-94
2022/03/10 01:03:42;;;;;;;13.93;10.07;;;1.90;99.90;;;;;;4903672;29;20544;-95
2022/03/10 01:06:08;;;;;;;18.00;10.63;;;1.90;99.90;;;;;;4903550;29;20198;-95
2022/03/10 01:08:33;;;;;;;13.73;9.90;;;1.90;99.90;;;;;;4920272;29;20518;-95
2022/03/10 01:10:59;;;;;;;16.13;10.17;;;1.90;99.90;;;;;;4928622;29;20253;-94
2022/03/10 01:13:25;;;;;;;13.30;9.03;;;2.00;99.90;;;;;;4939556;29;20251;-96
2022/03/10 01:15:50;;;;;;;14.03;9.30;;;2.00;99.90;;;;;;4922042;29;20238;-96
2022/03/10 01:18:16;;;;;;;14.93;10.00;;;2.00;99.90;;;;;;4939022;29;20178;-95
2022/03/10 01:20:43;;;;;;;15.00;10.23;;;2.00;99.90;;;;;;4922084;29;20615;-95
2022/03/10 01:23:10;;;;;;;14.60;10.17;;;2.00;99.90;;;;;;4938951;29;20204;-95
2022/03/10 01:25:36;;;;;;;16.57;10.87;;;1.90;99.90;;;;;;4921800;29;20179;-95
2022/03/10 01:28:02;;;;;;;24.53;11.73;;;1.80;99.90;;;;;;4938933;29;20676;-95
2022/03/10 01:30:27;;;;;;;16.53;10.40;;;1.60;99.90;;;;;;4939323;29;20177;-95
2022/03/10 01:32:53;;;;;;;12.70;9.60;;;1.50;99.90;;;;;;4922313;29;20605;-95
2022/03/10 01:35:19;;;;;;;17.07;10.20;;;1.40;99.90;;;;;;4938774;29;20208;-95
2022/03/10 01:37:45;;;;;;;15.10;10.07;;;1.30;99.90;;;;;;4921692;29;20178;-96
2022/03/10 01:40:14;;;;;;;15.53;10.47;;;1.30;99.90;;;;;;4921154;29;20232;-95
2022/03/10 01:42:40;;;;;;;14.33;9.53;;;1.40;99.90;;;;;;4938344;29;20201;-95
2022/03/10 01:45:06;;;;;;;14.33;9.80;;;1.40;99.90;;;;;;4939345;29;20183;-95
2022/03/10 01:47:33;;;;;;;16.47;10.40;;;1.50;99.90;;;;;;4938630;29;20205;-96
2022/03/10 01:49:59;;;;;;;14.47;9.73;;;1.50;99.90;;;;;;4921732;29;20205;-95
2022/03/10 01:52:26;;;;;;;16.33;10.47;;;1.60;99.90;;;;;;4938670;29;20174;-95
2022/03/10 01:54:52;;;;;;;16.97;10.20;;;1.70;99.90;;;;;;4938573;29;20194;-94
2022/03/10 01:57:18;;;;;;;15.37;9.63;;;1.70;99.90;;;;;;4937980;29;20214;-96
2022/03/10 01:59:44;;;;;;;15.87;9.90;;;1.70;99.90;;;;;;4938237;29;20176;-94
2022/03/10 02:02:10;;;;;;;14.57;9.70;;;1.70;99.90;;;;;;4921615;29;20300;-95
2022/03/10 02:04:35;;;;;;;14.33;9.60;;;1.70;99.90;;;;;;4938304;29;20594;-93
2022/03/10 02:07:03;;;;;;;16.63;10.57;;;1.70;99.90;;;;;;4938234;29;20225;-92
2022/03/10 02:12:14;;;;;;;19.97;10.33;;;1.70;99.90;;;;;;4938754;29;20269;-93
2022/03/10 02:17:26;;;;;;;15.53;10.37;;;1.70;99.90;;;;;;4938363;29;20192;-94
2022/03/10 02:19:57;;;;;;;21.00;10.07;;;1.60;99.90;;;;;;4938330;29;20174;-93
2022/03/10 02:22:24;;;;;;;16.27;10.20;;;1.60;99.90;;;;;;4938149;29;20174;-94
2022/03/10 02:24:51;;;;;;;14.63;9.87;;;1.60;99.90;;;;;;4938167;29;20170;-93
2022/03/10 02:27:19;;;;;;;16.80;10.13;;;1.60;99.90;;;;;;4937773;29;20179;-94
2022/03/10 02:29:46;;;;;;;15.23;10.33;;;1.60;99.90;;;;;;4937968;29;20280;-93
2022/03/10 02:32:13;;;;;;;17.27;10.30;;;1.60;99.90;;;;;;4921265;29;20209;-93
2022/03/10 02:34:40;;;;;;;16.00;10.70;;;1.60;99.90;;;;;;4937960;29;20178;-94
2022/03/10 02:37:06;;;;;;;15.03;10.13;;;1.60;99.90;;;;;;4920856;29;20220;-94
2022/03/10 02:39:32;;;;;;;15.07;9.53;;;1.60;99.90;;;;;;4920744;29;20237;-93
2022/03/10 02:41:59;;;;;;;18.53;10.60;;;1.60;99.90;;;;;;4920469;29;20185;-94
2022/03/10 02:44:25;;;;;;;18.77;10.07;;;1.60;99.90;;;;;;4938022;29;20518;-95
2022/03/10 02:46:51;;;;;;;16.73;9.17;;;1.60;99.90;;;;;;4937681;29;20184;-95
2022/03/10 02:49:17;;;;;;;15.43;9.87;;;1.60;99.90;;;;;;4937897;29;20181;-94
2022/03/10 02:51:43;;;;;;;14.30;9.80;;;1.50;99.90;;;;;;4920753;29;20242;-94
2022/03/10 02:54:09;;;;;;;21.07;11.07;;;1.50;99.90;;;;;;4940516;29;20180;-94
2022/03/10 02:56:35;;;;;;;14.90;9.97;;;1.40;99.90;;;;;;4941103;29;20219;-94
2022/03/10 02:59:01;;;;;;;17.70;11.10;;;1.30;99.90;;;;;;4941307;29;20186;-94
2022/03/10 03:01:28;;;;;;;17.20;10.00;;;1.20;99.90;;;;;;4924679;29;20617;-94
2022/03/10 03:03:53;;;;;;;19.00;10.80;;;1.10;99.90;;;;;;4924576;29;20185;-94
2022/03/10 03:06:19;;;;;;;14.07;9.97;;;1.10;99.90;;;;;;4941399;29;20190;-94
2022/03/10 03:08:45;;;;;;;16.47;9.97;;;1.10;99.90;;;;;;4924267;29;20186;-95
2022/03/10 03:11:11;;;;;;;15.10;10.20;;;1.00;99.90;;;;;;4940800;29;20178;-95
2022/03/10 03:13:36;;;;;;;15.63;10.83;;;1.10;99.90;;;;;;4924469;29;20177;-95
2022/03/10 03:16:02;;;;;;;17.10;10.30;;;1.10;99.90;;;;;;4941103;29;20260;-94
2022/03/10 03:18:28;;;;;;;14.77;9.93;;;1.10;99.90;;;;;;4924301;29;20186;-94
2022/03/10 03:20:54;;;;;;;17.57;11.13;;;1.10;99.90;;;;;;4941328;29;20178;-93
2022/03/10 03:23:19;;;;;;;17.07;10.90;;;1.10;99.90;;;;;;4924218;29;20177;-92
2022/03/10 03:25:45;;;;;;;13.53;9.50;;;1.10;99.90;;;;;;4924076;29;20275;-94
2022/03/10 03:28:11;;;;;;;15.37;10.17;;;1.00;99.90;;;;;;4941197;29;20263;-93
2022/03/10 03:30:36;;;;;;;15.37;10.10;;;1.00;99.90;;;;;;4941067;29;20197;-94
2022/03/10 03:33:02;;;;;;;16.13;10.43;;;0.90;99.90;;;;;;4924148;29;20276;-94
2022/03/10 03:35:28;;;;;;;21.33;9.13;;;0.90;99.90;;;;;;4940912;29;20198;-94
2022/03/10 03:37:54;;;;;;;13.90;9.87;;;1.00;99.90;;;;;;4923138;29;20182;-93
2022/03/10 03:40:19;;;;;;;19.37;9.80;;;0.90;99.90;;;;;;4923568;29;20236;-93
2022/03/10 03:42:45;;;;;;;18.30;10.00;;;1.00;99.90;;;;;;4940376;29;20187;-94
2022/03/10 03:45:11;;;;;;;14.73;9.40;;;0.90;99.90;;;;;;4924490;29;20191;-93
2022/03/10 03:47:37;;;;;;;14.77;9.83;;;0.90;99.90;;;;;;4940630;29;20261;-93
2022/03/10 03:50:04;;;;;;;16.43;10.90;;;0.90;99.90;;;;;;4923409;29;20233;-93
2022/03/10 03:52:30;;;;;;;13.67;9.60;;;0.80;99.90;;;;;;4923677;29;20186;-92
2022/03/10 03:54:55;;;;;;;16.10;10.20;;;0.70;99.90;;;;;;4940509;29;20202;-94
2022/03/10 03:57:21;;;;;;;15.53;9.90;;;0.70;99.90;;;;;;4923142;29;20254;-93
2022/03/10 03:59:47;;;;;;;15.73;9.47;;;0.70;99.90;;;;;;4940524;29;20229;-94
2022/03/10 04:02:13;;;;;;;17.53;10.53;;;0.70;99.90;;;;;;4940595;29;20182;-94
2022/03/10 04:04:39;;;;;;;17.67;10.10;;;0.70;99.90;;;;;;4940373;29;20265;-94
2022/03/10 04:07:04;;;;;;;13.27;9.70;;;0.70;99.90;;;;;;4926236;29;20186;-92
2022/03/10 04:09:30;;;;;;;17.60;10.27;;;0.70;99.90;;;;;;4940860;29;20241;-94
2022/03/10 04:11:56;;;;;;;17.40;10.30;;;0.70;99.90;;;;;;4940568;29;20320;-94
2022/03/10 04:14:21;;;;;;;16.57;9.87;;;0.70;99.90;;;;;;4939317;29;20268;-93
2022/03/10 04:16:47;;;;;;;17.77;9.70;;;0.60;99.90;;;;;;4940960;29;20225;-93
2022/03/10 04:19:13;;;;;;;13.73;9.53;;;0.70;99.90;;;;;;4940499;29;20178;-93
2022/03/10 04:21:39;;;;;;;16.67;10.40;;;0.60;99.90;;;;;;4942019;29;20182;-93
2022/03/10 04:24:05;;;;;;;16.00;9.57;;;0.70;99.90;;;;;;4941418;29;20182;-93
2022/03/10 04:26:30;;;;;;;16.07;9.57;;;0.60;99.90;;;;;;4941099;29;20186;-92
2022/03/10 04:28:56;;;;;;;14.87;9.83;;;0.60;99.90;;;;;;4941464;29;20713;-93
2022/03/10 04:31:23;;;;;;;16.87;10.03;;;0.60;99.90;;;;;;4940842;29;20631;-93
2022/03/10 04:33:49;;;;;;;16.20;10.07;;;0.60;99.90;;;;;;4939792;29;20214;-94
2022/03/10 04:36:14;;;;;;;13.53;10.03;;;0.60;99.90;;;;;;4941222;29;20244;-91
2022/03/10 04:38:40;;;;;;;16.07;10.23;;;0.50;99.90;;;;;;4923979;29;20190;-94
2022/03/10 04:41:06;;;;;;;14.37;10.03;;;0.50;99.90;;;;;;4924040;29;20236;-93
2022/03/10 04:43:32;;;;;;;16.40;10.00;;;0.50;99.90;;;;;;4924224;29;20189;-93
2022/03/10 04:45:59;;;;;;;14.80;9.87;;;0.50;99.90;;;;;;4941227;29;20260;-93
2022/03/10 04:48:25;;;;;;;15.33;9.93;;;0.50;99.90;;;;;;4922506;29;20526;-94
2022/03/10 04:50:51;;;;;;;13.20;9.00;;;0.50;99.90;;;;;;4939646;29;20187;-92
2022/03/10 04:53:17;;;;;;;15.77;9.43;;;0.50;99.90;;;;;;4922353;29;20186;-91
2022/03/10 04:55:43;;;;;;;15.13;9.60;;;0.60;99.90;;;;;;4922385;29;20221;-90
2022/03/10 04:58:08;;;;;;;13.23;9.57;;;0.60;99.90;;;;;;4939505;29;20617;-92
2022/03/10 05:00:34;;;;;;;13.77;9.60;;;0.60;99.90;;;;;;4939399;29;20182;-91
2022/03/10 05:03:00;;;;;;;13.17;9.23;;;0.60;99.90;;;;;;4922369;29;20189;-91
2022/03/10 05:05:26;;;;;;;15.90;9.53;;;0.70;99.90;;;;;;4939070;29;20226;-92
2022/03/10 05:07:52;;;;;;;16.93;9.80;;;0.70;99.90;;;;;;4926602;29;20229;-91
2022/03/10 05:10:18;;;;;;;15.27;9.90;;;0.70;99.90;;;;;;4920065;29;20178;-93
2022/03/10 05:13:02;;;;;;;16.53;9.03;;;0.80;99.90;;;;;;4902786;29;20595;-93
2022/03/10 05:15:32;;;;;;;13.97;9.13;;;0.70;99.90;;;;;;4902191;29;20680;-90
2022/03/10 05:18:03;;;;;;;12.67;9.07;;;0.70;99.90;;;;;;4903076;29;20181;-92
2022/03/10 05:20:30;;;;;;;15.30;9.17;;;0.70;99.90;;;;;;4919914;29;20243;-91
2022/03/10 05:22:58;;;;;;;14.30;8.77;;;0.70;99.90;;;;;;4903038;29;20186;-92
2022/03/10 05:25:26;;;;;;;14.77;9.47;;;0.70;99.90;;;;;;4902925;29;20171;-92
2022/03/10 05:27:52;;;;;;;13.87;9.57;;;0.70;99.90;;;;;;4919575;29;20215;-90
2022/03/10 05:30:19;;;;;;;14.97;9.53;;;0.70;99.90;;;;;;4919477;29;20185;-92
2022/03/10 05:32:45;;;;;;;14.57;9.03;;;0.70;99.90;;;;;;4919559;29;20182;-92
2022/03/10 05:35:15;;;;;;;13.00;8.63;;;0.70;99.90;;;;;;4902745;29;20175;-91
2022/03/10 05:37:42;;;;;;;14.93;10.00;;;0.60;99.90;;;;;;4930145;29;20305;-91
2022/03/10 05:40:10;;;;;;;15.33;9.30;;;0.60;99.90;;;;;;4938199;29;20681;-91
2022/03/10 05:42:41;;;;;;;14.40;9.20;;;0.60;99.90;;;;;;4921370;29;20182;-92
2022/03/10 05:45:08;;;;;;;13.67;8.97;;;0.60;99.90;;;;;;4921372;29;20643;-91
2022/03/10 05:47:35;;;;;;;15.43;9.43;;;0.60;99.90;;;;;;4938144;29;20174;-91
2022/03/10 05:50:02;;;;;;;14.90;8.60;;;0.60;99.90;;;;;;4921504;29;20215;-91
2022/03/10 05:52:27;;;;;;;13.77;8.73;;;0.60;99.90;;;;;;4938026;29;20209;-89
2022/03/10 05:54:53;;;;;;;14.10;8.90;;;0.60;99.90;;;;;;4921400;29;20217;-91
2022/03/10 05:57:19;;;;;;;14.23;8.77;;;0.60;99.90;;;;;;4920874;29;20312;-91
2022/03/10 05:59:44;;;;;;;22.90;13.00;;;0.60;99.90;;;;;;4938138;29;20177;-92
2022/03/10 06:02:10;;;;;;;16.70;9.90;;;0.60;99.90;;;;;;4921002;29;20186;-90
2022/03/10 06:04:36;;;;;;;12.63;8.50;;;0.50;99.90;;;;;;4921128;29;20264;-90
2022/03/10 06:07:02;;;;;;;16.20;10.20;;;0.50;99.90;;;;;;4920728;29;20268;-91
2022/03/10 06:09:28;;;;;;;15.20;9.87;;;0.50;99.90;;;;;;4938028;29;20200;-91
2022/03/10 06:11:54;;;;;;;15.83;9.23;;;0.50;99.90;;;;;;4920913;29;20686;-91
2022/03/10 06:14:21;;;;;;;12.80;8.73;;;0.50;99.90;;;;;;4937955;29;20182;-90
2022/03/10 06:16:47;;;;;;;16.00;9.73;;;0.60;99.90;;;;;;4928613;29;20740;-90
2022/03/10 06:19:13;;;;;;;14.23;9.70;;;0.60;99.90;;;;;;4924396;29;20186;-91
2022/03/10 06:21:38;;;;;;;16.50;8.97;;;0.60;99.90;;;;;;4937299;29;20268;-91
2022/03/10 06:24:06;;;;;;;14.70;9.67;;;0.70;99.90;;;;;;4940019;29;20511;-92
2022/03/10 06:26:32;;;;;;;16.30;9.07;;;0.70;99.90;;;;;;4939879;29;20560;-93
2022/03/10 06:28:57;;;;;;;15.13;9.37;;;0.80;99.90;;;;;;4956767;28;20184;-91
2022/03/10 06:31:24;;;;;;;14.33;9.13;;;0.80;99.90;;;;;;4948353;29;20205;-92
2022/03/10 06:33:51;;;;;;;13.90;8.60;;;0.90;99.90;;;;;;4933248;29;20181;-91
2022/03/10 06:36:17;;;;;;;18.57;9.53;;;0.90;99.90;;;;;;4927847;29;20237;-83
2022/03/10 06:38:43;;;;;;;16.10;9.30;;;1.00;99.90;;;;;;4925953;29;20662;-87
2022/03/10 06:41:08;;;;;;;17.13;10.07;;;1.00;99.90;;;;;;4938947;29;20183;-89
2022/03/10 06:43:34;;;;;;;21.70;12.50;;;1.10;99.90;;;;;;4956690;28;20206;-87
2022/03/10 06:46:00;;;;;;;16.40;10.90;;;1.10;99.90;;;;;;4956093;29;20208;-86
2022/03/10 06:48:26;;;;;;;18.73;10.97;;;1.20;99.90;;;;;;4942335;28;20184;-88
2022/03/10 06:50:51;;;;;;;15.20;9.53;;;1.30;99.90;;;;;;4920661;29;20239;-88
2022/03/10 06:53:17;;;;;;;14.27;9.20;;;1.30;99.90;;;;;;4920461;29;20185;-88
2022/03/10 06:55:43;;;;;;;12.73;8.57;;;1.40;99.90;;;;;;4920668;29;20539;-86
2022/03/10 06:58:09;;;;;;;12.77;8.80;;;1.50;99.90;;;;;;4936949;29;20185;-88
2022/03/10 07:00:35;;;;;;;12.90;8.70;;;1.50;99.90;;;;;;4920113;29;20614;-85
2022/03/10 07:03:01;;;;;;;13.50;8.63;;;1.60;99.90;;;;;;4919926;29;20233;-87
2022/03/10 07:05:27;;;;;;;13.17;8.73;;;1.70;99.90;;;;;;4920222;29;20174;-83
2022/03/10 07:07:53;;;;;;;13.80;9.20;;;1.80;99.90;;;;;;4919633;29;20182;-82
2022/03/10 07:10:19;;;;;;;14.40;8.70;;;1.90;99.90;;;;;;4919957;29;20190;-85
2022/03/10 07:12:44;;;;;;;15.57;8.60;;;2.00;99.90;;;;;;4936511;29;20178;-86
2022/03/10 07:15:11;;;;;;;13.33;8.30;;;2.10;99.90;;;;;;4919458;29;20178;-84
2022/03/10 07:17:38;;;;;;;16.47;8.90;;;2.20;99.90;;;;;;4919384;29;20193;-81
2022/03/10 07:20:05;;;;;;;12.37;8.80;;;2.30;99.90;;;;;;4936819;29;20184;-82
2022/03/10 07:22:31;;;;;;;20.47;9.43;;;2.40;99.90;;;;;;4919442;29;20180;-80
2022/03/10 07:24:57;;;;;;;15.77;8.70;;;2.50;99.90;;;;;;4936476;29;20206;-80
2022/03/10 07:27:22;;;;;;;13.90;8.53;;;2.60;99.90;;;;;;4934343;29;20261;-86
2022/03/10 07:29:48;;;;;;;13.67;8.07;;;2.70;99.90;;;;;;4955756;28;20188;-82
2022/03/10 07:32:14;;;;;;;12.40;8.20;;;2.80;99.90;;;;;;4938633;29;20567;-89
2022/03/10 07:34:39;;;;;;;15.53;8.67;;;2.90;99.90;;;;;;4938887;29;20184;-85
2022/03/10 07:37:05;;;;;;;15.53;7.83;;;3.00;99.90;;;;;;4949480;29;20208;-89
2022/03/10 07:39:31;;;;;;;13.93;8.40;;;3.10;99.90;;;;;;4938224;29;20280;-86
2022/03/10 07:41:57;;;;;;;15.53;9.13;;;3.20;99.90;;;;;;4922405;29;20186;-86
2022/03/10 07:44:25;;;;;;;14.80;9.50;;;3.30;99.90;;;;;;4923127;29;20506;-86
2022/03/10 07:46:50;;;;;;;14.83;9.17;;;3.40;99.90;;;;;;4939957;29;20605;-85
2022/03/10 07:49:17;;;;;;;13.47;8.63;;;3.50;99.90;;;;;;4939860;29;20173;-83
2022/03/10 07:51:44;;;;;;;13.03;8.90;;;3.50;99.90;;;;;;4939962;29;20189;-86
2022/03/10 07:54:10;;;;;;;14.97;8.83;;;3.60;99.90;;;;;;4939748;29;20182;-85
2022/03/10 07:56:36;;;;;;;13.83;8.80;;;3.70;99.90;;;;;;4922316;29;20595;-84
2022/03/10 07:59:02;;;;;;;14.67;8.80;;;3.80;99.90;;;;;;4938636;29;20220;-84
2022/03/10 08:01:28;;;;;;;15.43;9.17;;;3.80;99.90;;;;;;4939478;29;20222;-83
2022/03/10 08:03:53;;;;;;;14.43;9.10;;;3.90;99.90;;;;;;4922259;29;20185;-85
2022/03/10 08:06:19;;;;;;;15.73;8.97;;;3.90;99.90;;;;;;4939438;29;20608;-85
2022/03/10 08:08:45;;;;;;;13.93;8.70;;;4.10;99.90;;;;;;4922278;29;20186;-86
2022/03/10 08:11:11;;;;;;;13.63;8.50;;;4.20;99.90;;;;;;4922564;29;20185;-86
2022/03/10 08:13:37;;;;;;;14.63;8.53;;;4.30;99.90;;;;;;4921941;29;20189;-84
2022/03/10 08:16:03;;;;;;;16.10;8.70;;;4.50;99.90;;;;;;4922100;29;20213;-84
2022/03/10 08:18:29;;;;;;;14.37;7.97;;;4.70;99.90;;;;;;4922331;29;20190;-85
2022/03/10 08:20:59;;;;;;;13.60;8.70;;;4.80;99.90;;;;;;4939490;29;20185;-87
2022/03/10 08:23:26;;;;;;;14.67;8.03;;;5.00;99.90;;;;;;4914877;29;20190;-86
2022/03/10 08:25:51;;;;;;;12.20;7.93;;;5.10;99.90;;;;;;4918782;29;20197;-85
2022/03/10 08:28:17;;;;;;;11.20;7.97;;;5.20;99.90;;;;;;4934642;29;20189;-84
2022/03/10 08:30:43;;;;;;;14.97;7.90;;;5.40;99.90;;;;;;4938650;29;20531;-86
2022/03/10 08:33:09;;;;;;;10.40;7.37;;;5.50;99.90;;;;;;4919910;29;20183;-86
2022/03/10 08:35:34;;;;;;;16.20;8.33;;;5.70;99.90;;;;;;4902790;29;20214;-85
2022/03/10 08:38:00;;;;;;;13.07;7.80;;;5.90;99.90;;;;;;4903143;29;20187;-84
2022/03/10 08:40:26;;;;;;;10.43;6.67;;;6.00;99.90;;;;;;4902616;29;20230;-84
2022/03/10 08:42:52;;;;;;;13.17;7.37;;;6.10;99.90;;;;;;4902728;29;20528;-85
2022/03/10 08:45:18;;;;;;;12.03;7.00;;;6.30;99.90;;;;;;4919682;29;20175;-84
2022/03/10 08:47:44;;;;;;;10.47;7.07;;;6.50;99.90;;;;;;4902688;29;20214;-82
2022/03/10 08:50:11;;;;;;;9.57;6.00;;;6.60;99.90;;;;;;4918898;29;20210;-82
2022/03/10 08:52:38;;;;;;;12.57;7.07;;;6.80;99.90;;;;;;4919213;29;20657;-82
2022/03/10 08:55:05;;;;;;;10.50;7.00;;;7.00;99.90;;;;;;4902324;29;20187;-87
2022/03/10 08:57:32;;;;;;;10.43;6.60;;;7.20;99.90;;;;;;4918982;29;20206;-83
2022/03/10 08:59:58;;;;;;;11.03;6.60;;;7.40;99.90;;;;;;4909792;29;20190;-83
2022/03/10 09:02:24;;;;;;;12.07;6.90;;;7.50;99.90;;;;;;4921173;29;20272;-82
2022/03/10 09:04:50;;;;;;;10.73;6.73;;;7.50;99.90;;;;;;4938172;29;20186;-82
2022/03/10 09:07:16;;;;;;;10.93;6.50;;;7.70;99.90;;;;;;4920872;29;20268;-82
2022/03/10 09:09:42;;;;;;;11.03;6.90;;;7.70;99.90;;;;;;4938133;29;20639;-82
2022/03/10 09:12:08;;;;;;;10.20;6.60;;;7.80;99.90;;;;;;4920611;29;20182;-82
2022/03/10 09:14:34;;;;;;;10.87;7.07;;;7.90;99.90;;;;;;4938056;29;20188;-84
2022/03/10 09:17:00;;;;;;;10.80;6.50;;;7.90;99.90;;;;;;4920860;29;20557;-87
2022/03/10 09:19:25;;;;;;;9.53;6.20;;;8.00;99.90;;;;;;4921143;29;20182;-85
2022/03/10 09:21:51;;;;;;;10.27;6.47;;;8.10;99.90;;;;;;4921070;29;20190;-86
2022/03/10 09:24:18;;;;;;;11.77;6.80;;;8.10;99.90;;;;;;4938068;29;20182;-86
2022/03/10 09:26:43;;;;;;;11.70;6.80;;;8.20;99.40;;;;;;4920752;29;20192;-85
2022/03/10 09:29:09;;;;;;;10.47;6.70;;;8.30;99.40;;;;;;4938022;29;20182;-85
2022/03/10 09:31:35;;;;;;;12.37;6.73;;;8.30;99.40;;;;;;4937869;29;20209;-85
2022/03/10 09:34:01;;;;;;;11.53;6.50;;;8.40;98.80;;;;;;4938061;29;20174;-87
2022/03/10 09:36:26;;;;;;;9.90;6.77;;;8.50;98.40;;;;;;4937760;29;20595;-83
2022/03/10 09:38:53;;;;;;;11.07;6.43;;;8.60;98.30;;;;;;4920432;29;20210;-84
2022/03/10 09:41:19;;;;;;;12.90;6.67;;;8.50;98.50;;;;;;4920874;29;20289;-85
2022/03/10 09:43:46;;;;;;;12.07;6.77;;;8.60;98.20;;;;;;4920467;29;20178;-86
2022/03/10 09:46:12;;;;;;;9.90;6.73;;;8.70;98.30;;;;;;4937580;29;20268;-84
2022/03/10 09:48:39;;;;;;;10.83;6.60;;;8.80;98.50;;;;;;4920559;29;20269;-84
2022/03/10 09:51:06;;;;;;;11.97;6.13;;;8.90;97.40;;;;;;4923149;29;20522;-82
2022/03/10 09:53:34;;;;;;;11.27;7.20;;;9.00;97.60;;;;;;4956727;28;20173;-87
2022/03/10 09:56:01;;;;;;;11.07;6.67;;;9.00;97.30;;;;;;4939426;29;20276;-86
2022/03/10 09:58:26;;;;;;;9.67;6.00;;;9.10;96.60;;;;;;4956936;29;20204;-84
2022/03/10 10:01:04;;;;;;;8.40;6.27;;;9.10;96.10;;;;;;4924918;29;20217;-83
2022/03/10 10:03:30;;;;;;;10.87;6.97;;;9.20;95.70;;;;;;4936945;29;20178;-85
2022/03/10 10:06:00;;;;;;;10.30;6.00;;;9.30;96.00;;;;;;4920124;29;20237;-86
2022/03/10 10:08:27;;;;;;;10.77;6.80;;;9.40;95.70;;;;;;4920285;29;20182;-84
2022/03/10 10:11:00;;;;;;;9.03;6.20;;;9.50;94.30;;;;;;4920177;29;20177;-84
2022/03/10 10:13:30;;;;;;;9.70;6.43;;;9.50;93.60;;;;;;4937090;29;20174;-84
2022/03/10 10:16:03;;;;;;;10.97;6.20;;;9.60;93.20;;;;;;4920050;29;20213;-82
2022/03/10 10:18:31;;;;;;;9.33;6.13;;;9.70;93.40;;;;;;4920022;29;20214;-84
2022/03/10 10:20:57;;;;;;;10.80;6.73;;;9.70;93.20;;;;;;4937216;29;20181;-84
2022/03/10 10:23:31;;;;;;;10.33;6.97;;;9.80;93.90;;;;;;4937074;29;20170;-83
2022/03/10 10:26:00;;;;;;;10.90;6.80;;;9.90;92.70;;;;;;4920050;29;20177;-86
2022/03/10 10:28:32;;;;;;;11.63;6.90;;;10.00;93.00;;;;;;4936824;29;20261;-86
2022/03/10 10:31:13;;;;;;;14.77;7.70;;;10.00;92.80;;;;;;4937088;29;20602;-85
2022/03/10 10:33:55;;;;;;;11.50;7.13;;;10.10;92.10;;;;;;4937404;29;20602;-86
2022/03/10 10:36:24;;;;;;;11.47;7.80;;;10.20;91.80;;;;;;4937095;29;20217;-84
2022/03/10 10:38:53;;;;;;;12.53;7.27;;;10.30;91.60;;;;;;4936751;29;20280;-85
2022/03/10 10:41:24;;;;;;;13.50;6.80;;;10.30;90.10;;;;;;4919933;29;20211;-86
2022/03/10 10:44:02;;;;;;;9.30;6.73;;;10.30;88.50;;;;;;4919808;29;20641;-85
2022/03/10 10:46:29;;;;;;;16.17;7.70;;;10.40;87.90;;;;;;4937136;29;20166;-87
2022/03/10 10:48:56;;;;;;;12.77;7.47;;;10.40;89.80;;;;;;4937072;29;20162;-85
2022/03/10 10:51:36;;;;;;;10.75;7.63;;;10.50;87.40;;;;;;4937205;29;20178;-86
2022/03/10 10:54:05;;;;;;;11.87;7.27;;;10.50;88.30;;;;;;4919896;29;20189;-86
2022/03/10 10:56:32;;;;;;;11.13;7.13;;;10.50;87.40;;;;;;4936937;29;20229;-84
2022/03/10 10:58:57;;;;;;;11.00;7.83;;;10.50;87.50;;;;;;4919599;29;20170;-86
2022/03/10 11:01:41;;;;;;;11.23;7.33;;;10.50;86.10;;;;;;4919724;29;20648;-89
2022/03/10 11:04:08;;;;;;;13.30;8.50;;;10.60;85.20;;;;;;4919543;29;20178;-83
2022/03/10 11:06:34;;;;;;;11.77;7.10;;;10.60;85.30;;;;;;4919773;29;20583;-82
2022/03/10 11:09:00;;;;;;;15.77;7.53;;;10.60;82.80;;;;;;4919772;29;20185;-83
2022/03/10 11:11:26;;;;;;;15.18;7.30;;;10.60;84.60;;;;;;4936713;29;20260;-85
2022/03/10 11:13:52;;;;;;;10.85;7.40;;;10.80;86.60;;;;;;4920089;29;20182;-83
2022/03/10 11:16:19;;;;;;;10.32;7.18;;;10.80;86.50;;;;;;4923067;29;20224;-84
2022/03/10 11:18:49;;;;;;;10.65;7.55;;;10.90;86.90;;;;;;4940145;29;20225;-83
2022/03/10 11:21:41;;;;;;;11.75;6.85;;;11.00;85.00;;;;;;4940246;29;20189;-82
2022/03/10 11:24:50;;;;;;;10.98;7.10;;;11.10;83.10;;;;;;4923244;29;20178;-84
2022/03/10 11:27:23;;;;;;;13.70;6.70;;;10.90;81.40;;;;;;4893829;29;20193;-82
2022/03/10 11:29:53;;;;;;;10.30;6.25;;;10.90;81.90;;;;;;4923115;29;20503;-86
2022/03/10 11:32:28;;;;;;;14.05;6.57;;;10.90;80.60;;;;;;4923017;29;20684;-85
2022/03/10 11:34:58;;;;;;;13.10;6.43;;;11.00;79.00;;;;;;4922893;29;20182;-84
2022/03/10 11:37:35;;;;;;;10.32;6.28;;;11.00;81.20;;;;;;4922618;29;20665;-84
2022/03/10 11:40:02;;;;;;;12.18;6.57;;;11.10;82.00;;;;;;4922820;29;20237;-84
2022/03/10 11:42:30;;;;;;;8.80;5.90;;;11.10;81.30;;;;;;4939542;29;20192;-85
2022/03/10 11:45:17;;;;;;;8.90;5.55;;;11.30;81.10;;;;;;4939809;29;20213;-87
2022/03/10 11:47:43;;;;;;;8.65;5.30;;;11.40;78.50;;;;;;4939704;29;20197;-86
2022/03/10 11:50:24;;;;;;;17.05;5.78;;;11.30;76.20;;;;;;4939663;29;20632;-84
2022/03/10 11:53:12;;;;;;;8.82;5.68;;;11.20;75.10;;;;;;4939932;29;20205;-87
2022/03/10 11:55:52;;;;;;;8.48;5.55;;;11.30;76.40;;;;;;4939801;29;20534;-83
2022/03/10 11:58:32;;;;;;;10.70;5.57;;;11.40;80.10;;;;;;4939336;29;20173;-86
2022/03/10 12:00:58;;;;;;;8.65;5.22;;;11.60;79.60;;;;;;4922761;29;20182;-87
2022/03/10 12:03:34;;;;;;;9.88;5.38;;;11.60;77.90;;;;;;4939666;29;20166;-84
2022/03/10 12:06:06;;;;;;;7.95;5.40;;;11.70;79.50;;;;;;4939529;29;20181;-83
2022/03/10 12:08:35;;;;;;;9.60;5.70;;;11.70;76.70;;;;;;4922389;29;20273;-85
2022/03/10 12:11:03;;;;;;;12.82;6.38;;;11.70;79.60;;;;;;4939521;29;20177;-84
2022/03/10 12:13:41;;;;;;;11.20;5.18;;;11.70;77.10;;;;;;4922037;29;20645;-85
2022/03/10 12:16:08;;;;;;;7.35;5.18;;;11.70;76.90;;;;;;4939301;29;20341;-86
2022/03/10 12:18:44;;;;;;;9.82;5.55;;;11.70;76.70;;;;;;4922253;29;20174;-87
2022/03/10 12:21:22;;;;;;;8.05;5.07;;;11.70;76.10;;;;;;4939313;29;20166;-87
2022/03/10 12:24:03;;;;;;;10.63;5.00;;;11.70;75.30;;;;;;4939613;29;20459;-85
2022/03/10 12:26:34;;;;;;;7.70;5.03;;;11.70;74.10;;;;;;4939031;29;20178;-86
2022/03/10 12:29:10;;;;;;;8.35;4.85;;;11.60;74.90;;;;;;4922119;29;20277;-84
2022/03/10 12:31:38;;;;;;;8.25;5.40;;;11.70;76.80;;;;;;4939146;29;20256;-85
2022/03/10 12:34:07;;;;;;;8.52;4.93;;;11.80;76.60;;;;;;4939111;29;20194;-86
2022/03/10 12:36:53;;;;;;;7.53;5.00;;;11.80;74.70;;;;;;4939129;29;20217;-83
2022/03/10 12:39:21;;;;;;;7.93;5.28;;;11.80;74.40;;;;;;4921867;29;20248;-85
2022/03/10 12:41:50;;;;;;;11.90;5.53;;;11.80;75.30;;;;;;4939057;29;20166;-85
2022/03/10 12:44:22;;;;;;;10.10;5.18;;;11.80;74.80;;;;;;4921254;29;20503;-82
2022/03/10 12:46:50;;;;;;;7.78;4.68;;;11.90;74.50;;;;;;4921598;29;20189;-81
2022/03/10 12:49:26;;;;;;;6.88;4.53;;;12.00;75.20;;;;;;4938621;29;20162;-83